createdAt,value
2023-11-25T00:00:51.812Z,87.21
2023-11-25T00:03:19.560Z,86.24
2023-11-25T00:05:46.963Z,86.16
2023-11-25T00:08:14.327Z,87.05
2023-11-25T00:10:42.044Z,85.16
2023-11-25T00:13:10.185Z,85.33
2023-11-25T00:15:38.026Z,85.00
2023-11-25T00:18:07.747Z,84.09
2023-11-25T00:20:38.157Z,84.09
2023-11-25T00:23:06.731Z,84.39
2023-11-25T00:25:34.114Z,84.34
2023-11-25T00:28:01.870Z,85.02
2023-11-25T00:30:30.532Z,84.93
2023-11-25T00:32:57.963Z,84.93
2023-11-25T00:35:26.725Z,85.76
2023-11-25T00:37:54.494Z,86.00
2023-11-25T00:40:21.913Z,86.14
2023-11-25T00:42:49.309Z,82.93
2023-11-25T00:45:17.070Z,84.24
2023-11-25T00:47:44.547Z,85.07
2023-11-25T00:50:12.553Z,83.48
2023-11-25T00:52:40.467Z,82.50
2023-11-25T00:55:08.893Z,81.91
2023-11-25T00:57:37.104Z,81.71
2023-11-25T01:00:16.917Z,83.52
2023-11-25T01:02:50.614Z,82.74
2023-11-25T01:05:18.371Z,82.13
2023-11-25T01:07:46.083Z,82.04
2023-11-25T01:10:13.658Z,82.16
2023-11-25T01:12:42.437Z,82.90
2023-11-25T01:15:12.714Z,83.10
2023-11-25T01:17:41.201Z,83.58
2023-11-25T01:20:10.979Z,84.31
2023-11-25T01:22:40.202Z,84.38
2023-11-25T01:25:08.370Z,84.67
2023-11-25T01:27:37.160Z,85.56
2023-11-25T01:30:07.580Z,86.59
2023-11-25T01:32:35.800Z,87.17
2023-11-25T01:35:04.151Z,87.42
2023-11-25T01:37:34.758Z,87.93
2023-11-25T01:40:06.504Z,88.43
2023-11-25T01:42:34.111Z,89.31
2023-11-25T01:45:01.459Z,90.30
2023-11-25T01:47:43.139Z,90.99
2023-11-25T01:50:11.882Z,91.34
2023-11-25T01:52:39.665Z,91.97
2023-11-25T01:55:09.911Z,92.71
2023-11-25T01:57:38.143Z,93.53
2023-11-25T02:00:09.054Z,93.04
2023-11-25T02:02:39.420Z,93.53
2023-11-25T02:05:09.183Z,93.49
2023-11-25T02:07:37.297Z,93.28
2023-11-25T02:10:06.314Z,92.72
2023-11-25T02:12:36.018Z,92.69
2023-11-25T02:15:03.883Z,92.24
2023-11-25T02:17:33.568Z,91.84
2023-11-25T02:20:03.753Z,91.37
2023-11-25T02:22:38.514Z,90.63
2023-11-25T02:25:06.469Z,90.48
2023-11-25T02:27:35.841Z,90.02
2023-11-25T02:30:07.291Z,89.96
2023-11-25T02:32:35.089Z,90.13
2023-11-25T02:35:02.504Z,89.98
2023-11-25T02:37:29.909Z,90.07
2023-11-25T02:39:57.673Z,89.26
2023-11-25T02:42:25.104Z,89.53
2023-11-25T02:44:54.518Z,89.22
2023-11-25T02:47:24.654Z,89.06
2023-11-25T02:49:52.514Z,89.35
2023-11-25T02:52:20.801Z,88.09
2023-11-25T02:54:49.319Z,88.33
2023-11-25T02:57:20.318Z,88.34
2023-11-25T02:59:48.244Z,88.13
2023-11-25T03:02:17.238Z,88.33
2023-11-25T03:04:46.857Z,88.11
2023-11-25T03:07:15.031Z,87.60
2023-11-25T03:09:45.740Z,87.74
2023-11-25T03:12:13.090Z,87.47
2023-11-25T03:14:40.497Z,86.67
2023-11-25T03:17:08.682Z,87.16
2023-11-25T03:19:36.509Z,87.10
2023-11-25T03:22:04.514Z,87.22
2023-11-25T03:24:32.162Z,87.31
2023-11-25T03:26:59.697Z,86.38
2023-11-25T03:29:27.507Z,86.52
2023-11-25T03:31:55.284Z,85.89
2023-11-25T03:34:24.831Z,84.85
2023-11-25T03:36:52.992Z,84.09
2023-11-25T03:39:21.073Z,84.10
2023-11-25T03:41:48.404Z,84.47
2023-11-25T03:44:17.681Z,83.70
2023-11-25T03:46:45.810Z,83.62
2023-11-25T03:49:13.788Z,84.77
2023-11-25T03:51:41.166Z,84.19
2023-11-25T03:54:09.994Z,83.25
2023-11-25T03:56:37.344Z,83.57
2023-11-25T03:59:05.353Z,83.43
2023-11-25T04:01:33.267Z,85.04
2023-11-25T04:04:02.936Z,86.19
2023-11-25T04:06:30.970Z,88.89
2023-11-25T04:08:58.309Z,86.89
2023-11-25T04:11:25.970Z,86.89
2023-11-25T04:13:57.831Z,87.74
2023-11-25T04:16:25.585Z,88.62
2023-11-25T04:18:53.540Z,88.85
2023-11-25T04:21:24.706Z,89.79
2023-11-25T04:23:56.724Z,90.06
2023-11-25T04:26:25.914Z,89.91
2023-11-25T04:28:53.895Z,90.12
2023-11-25T04:31:21.941Z,90.01
2023-11-25T04:33:50.558Z,90.20
2023-11-25T04:36:19.884Z,90.92
2023-11-25T04:38:47.695Z,91.67
2023-11-25T04:41:15.378Z,91.85
2023-11-25T04:43:42.856Z,92.01
2023-11-25T04:46:10.650Z,92.16
2023-11-25T04:48:40.216Z,92.51
2023-11-25T04:51:07.564Z,92.51
2023-11-25T04:53:34.896Z,92.47
2023-11-25T04:56:02.612Z,92.88
2023-11-25T04:58:30.533Z,93.16
2023-11-25T05:00:59.893Z,93.07
2023-11-25T05:03:27.678Z,92.37
2023-11-25T05:05:55.089Z,92.03
2023-11-25T05:08:22.813Z,91.46
2023-11-25T05:10:50.544Z,90.64
2023-11-25T05:13:19.674Z,89.27
2023-11-25T05:15:47.169Z,88.04
2023-11-25T05:18:14.858Z,87.18
2023-11-25T05:20:42.453Z,86.81
2023-11-25T05:23:09.787Z,86.24
2023-11-25T05:25:39.020Z,86.52
2023-11-25T05:28:07.147Z,86.74
2023-11-25T05:30:34.571Z,86.42
2023-11-25T05:33:02.501Z,86.25
2023-11-25T05:35:31.442Z,86.96
2023-11-25T05:37:59.393Z,86.91
2023-11-25T05:40:31.041Z,86.99
2023-11-25T05:43:01.806Z,86.91
2023-11-25T05:45:31.810Z,86.95
2023-11-25T05:47:59.279Z,87.07
2023-11-25T05:50:26.744Z,87.18
2023-11-25T05:52:54.564Z,87.55
2023-11-25T05:55:22.305Z,87.04
2023-11-25T05:57:52.108Z,86.67
2023-11-25T06:00:20.978Z,87.34
2023-11-25T06:02:48.985Z,87.44
2023-11-25T06:05:17.115Z,87.19
2023-11-25T06:07:45.527Z,87.05
2023-11-25T06:10:13.395Z,87.99
2023-11-25T06:12:42.946Z,88.95
2023-11-25T06:15:12.745Z,89.28
2023-11-25T06:17:41.599Z,90.26
2023-11-25T06:20:09.421Z,90.66
2023-11-25T06:22:38.630Z,91.46
2023-11-25T06:25:09.354Z,91.27
2023-11-25T06:27:37.437Z,91.13
2023-11-25T06:30:05.283Z,90.95
2023-11-25T06:32:34.424Z,90.71
2023-11-25T06:35:02.040Z,90.56
2023-11-25T06:37:31.942Z,90.46
2023-11-25T06:40:00.226Z,90.23
2023-11-25T06:42:28.829Z,90.47
2023-11-25T06:44:56.643Z,89.13
2023-11-25T06:47:24.986Z,88.75
2023-11-25T06:49:53.322Z,88.31
2023-11-25T06:52:20.796Z,87.61
2023-11-25T06:54:49.988Z,87.46
2023-11-25T06:57:25.094Z,87.13
2023-11-25T06:59:52.727Z,86.48
2023-11-25T07:02:20.232Z,86.13
2023-11-25T07:04:48.904Z,86.19
2023-11-25T07:07:18.234Z,86.02
2023-11-25T07:09:54.698Z,85.79
2023-11-25T07:12:22.373Z,86.10
2023-11-25T07:14:52.396Z,86.86
2023-11-25T07:17:20.056Z,87.73
2023-11-25T07:19:50.632Z,87.70
2023-11-25T07:22:18.144Z,88.03
2023-11-25T07:24:47.812Z,87.91
2023-11-25T07:27:19.530Z,88.88
2023-11-25T07:29:47.712Z,85.98
2023-11-25T07:32:18.415Z,84.79
2023-11-25T07:34:46.196Z,84.38
2023-11-25T07:37:13.850Z,84.14
2023-11-25T07:39:41.251Z,82.75
2023-11-25T07:42:09.533Z,82.33
2023-11-25T07:44:36.971Z,81.18
2023-11-25T07:47:08.834Z,80.70
2023-11-25T07:49:37.872Z,80.24
2023-11-25T07:52:06.092Z,80.21
2023-11-25T07:54:35.252Z,79.97
2023-11-25T07:57:04.472Z,80.35
2023-11-25T07:59:31.857Z,78.87
2023-11-25T08:01:59.824Z,78.11
2023-11-25T08:04:27.983Z,79.33
2023-11-25T08:06:55.905Z,77.47
2023-11-25T08:09:27.612Z,77.19
2023-11-25T08:11:57.169Z,77.48
2023-11-25T08:14:24.502Z,76.63
2023-11-25T08:16:52.915Z,75.59
2023-11-25T08:19:22.594Z,76.51
2023-11-25T08:21:50.158Z,76.19
2023-11-25T08:24:22.817Z,75.45
2023-11-25T08:26:51.513Z,76.78
2023-11-25T08:29:19.738Z,76.85
2023-11-25T08:31:47.185Z,76.08
2023-11-25T08:34:16.099Z,76.27
2023-11-25T08:36:54.086Z,76.45
2023-11-25T08:39:33.849Z,77.28
2023-11-25T08:42:01.251Z,76.51
2023-11-25T08:44:33.980Z,76.58
2023-11-25T08:47:17.378Z,76.57
2023-11-25T08:49:46.675Z,76.40
2023-11-25T08:52:16.658Z,76.87
2023-11-25T08:54:49.655Z,76.36
2023-11-25T08:57:21.466Z,77.43
2023-11-25T08:59:49.246Z,78.07
2023-11-25T09:02:23.652Z,78.45
2023-11-25T09:05:03.683Z,79.92
2023-11-25T09:07:40.601Z,78.83
2023-11-25T09:10:08.952Z,77.30
2023-11-25T09:12:36.633Z,77.80
2023-11-25T09:15:09.260Z,77.97
2023-11-25T09:17:39.819Z,78.12
2023-11-25T09:20:11.072Z,77.98
2023-11-25T09:22:40.311Z,79.25
2023-11-25T09:25:13.574Z,78.64
2023-11-25T09:27:42.327Z,77.94
2023-11-25T09:30:12.984Z,76.99
2023-11-25T09:32:45.704Z,77.36
2023-11-25T09:35:14.070Z,78.93
2023-11-25T09:37:43.831Z,78.69
2023-11-25T09:40:16.874Z,79.69
2023-11-25T09:42:46.863Z,77.91
2023-11-25T09:45:16.062Z,77.44
2023-11-25T09:47:46.730Z,78.15
2023-11-25T09:50:15.594Z,76.71
2023-11-25T09:52:43.307Z,75.88
2023-11-25T09:55:12.945Z,77.19
2023-11-25T09:57:43.555Z,77.72
2023-11-25T10:00:12.689Z,77.77
2023-11-25T10:02:41.135Z,77.35
2023-11-25T10:05:09.198Z,76.90
2023-11-25T10:07:37.377Z,78.92
2023-11-25T10:10:06.276Z,77.00
2023-11-25T10:12:35.275Z,76.25
2023-11-25T10:15:09.498Z,77.11
2023-11-25T10:17:56.926Z,77.39
2023-11-25T10:20:24.967Z,77.11
2023-11-25T10:22:57.757Z,77.45
2023-11-25T10:25:27.125Z,77.31
2023-11-25T10:27:56.439Z,77.93
2023-11-25T10:30:26.340Z,77.12
2023-11-25T10:32:57.813Z,77.14
2023-11-25T10:35:26.422Z,75.80
2023-11-25T10:37:54.624Z,75.69
2023-11-25T10:40:23.482Z,75.85
2023-11-25T10:42:55.428Z,76.94
2023-11-25T10:45:28.166Z,77.70
2023-11-25T10:47:57.503Z,78.33
2023-11-25T10:50:29.544Z,77.90
2023-11-25T10:52:59.777Z,79.57
2023-11-25T10:55:29.308Z,78.37
2023-11-25T10:57:59.048Z,78.28
2023-11-25T11:00:30.077Z,78.58
2023-11-25T11:02:58.755Z,78.92
2023-11-25T11:05:29.201Z,79.48
2023-11-25T11:07:59.030Z,80.03
2023-11-25T11:10:28.406Z,80.42
2023-11-25T11:13:01.276Z,81.68
2023-11-25T11:15:29.199Z,80.96
2023-11-25T11:18:08.313Z,80.30
2023-11-25T11:20:39.676Z,78.66
2023-11-25T11:23:07.902Z,78.57
2023-11-25T11:25:37.096Z,77.78
2023-11-25T11:28:08.179Z,77.89
2023-11-25T11:30:42.433Z,76.10
2023-11-25T11:33:10.596Z,74.76
2023-11-25T11:35:39.944Z,75.43
2023-11-25T11:38:37.261Z,74.09
2023-11-25T11:41:11.979Z,75.31
2023-11-25T11:43:39.839Z,75.24
2023-11-25T11:46:08.086Z,75.26
2023-11-25T11:48:35.923Z,76.05
2023-11-25T11:51:05.347Z,74.50
2023-11-25T11:53:43.543Z,73.32
2023-11-25T11:56:18.646Z,74.55
2023-11-25T11:59:05.578Z,74.34
2023-11-25T12:01:33.972Z,74.37
2023-11-25T12:04:02.213Z,72.63
2023-11-25T12:06:30.812Z,73.22
2023-11-25T12:09:06.462Z,74.46
2023-11-25T12:11:41.220Z,73.72
2023-11-25T12:14:12.417Z,73.73
2023-11-25T12:16:40.606Z,73.71
2023-11-25T12:19:07.955Z,72.52
2023-11-25T12:21:37.610Z,69.62
2023-11-25T12:24:06.141Z,69.90
2023-11-25T12:26:33.839Z,70.78
2023-11-25T12:29:01.873Z,71.58
2023-11-25T12:31:29.619Z,71.18
2023-11-25T12:34:01.516Z,70.36
2023-11-25T12:36:28.856Z,68.62
2023-11-25T12:39:02.087Z,68.68
2023-11-25T12:41:33.831Z,68.03
2023-11-25T12:44:07.065Z,67.59
2023-11-25T12:46:35.280Z,67.06
2023-11-25T12:49:22.822Z,68.16
2023-11-25T12:51:53.951Z,67.69
2023-11-25T12:54:21.867Z,67.55
2023-11-25T12:56:53.567Z,68.48
2023-11-25T12:59:25.041Z,68.10
2023-11-25T13:01:53.390Z,67.67
2023-11-25T13:04:21.424Z,67.39
2023-11-25T13:06:49.807Z,65.39
2023-11-25T13:09:23.085Z,65.06
2023-11-25T13:12:01.119Z,64.43
2023-11-25T13:14:31.093Z,64.69
2023-11-25T13:16:58.550Z,65.05
2023-11-25T13:19:33.333Z,65.28
2023-11-25T13:22:02.098Z,65.00
2023-11-25T13:24:29.438Z,64.36
2023-11-25T13:26:59.706Z,63.66
2023-11-25T13:29:27.373Z,63.55
2023-11-25T13:31:55.314Z,63.50
2023-11-25T13:34:22.654Z,62.75
2023-11-25T13:36:51.785Z,62.60
2023-11-25T13:39:24.716Z,63.30
2023-11-25T13:41:52.480Z,62.82
2023-11-25T13:44:20.320Z,63.43
2023-11-25T13:46:49.754Z,63.48
2023-11-25T13:49:17.889Z,64.61
2023-11-25T13:51:45.207Z,65.07
2023-11-25T13:54:15.988Z,63.76
2023-11-25T13:56:43.729Z,62.58
2023-11-25T13:59:11.047Z,62.02
2023-11-25T14:01:39.747Z,61.43
2023-11-25T14:04:08.680Z,61.41
2023-11-25T14:06:36.113Z,61.44
2023-11-25T14:09:04.733Z,62.12
2023-11-25T14:11:32.753Z,61.82
2023-11-25T14:14:01.661Z,62.74
2023-11-25T14:16:29.679Z,63.67
2023-11-25T14:18:57.486Z,65.04
2023-11-25T14:21:27.354Z,64.72
2023-11-25T14:23:55.676Z,65.46
2023-11-25T14:26:27.081Z,65.96
2023-11-25T14:28:54.778Z,66.39
2023-11-25T14:31:23.249Z,66.28
2023-11-25T14:33:50.908Z,67.22
2023-11-25T14:36:18.529Z,66.20
2023-11-25T14:38:47.589Z,66.19
2023-11-25T14:41:20.867Z,69.47
2023-11-25T14:43:48.804Z,66.95
2023-11-25T14:46:18.016Z,66.99
2023-11-25T14:48:47.839Z,67.05
2023-11-25T14:51:16.046Z,67.55
2023-11-25T14:53:44.419Z,66.57
2023-11-25T14:56:14.315Z,67.20
2023-11-25T14:58:43.859Z,67.31
2023-11-25T15:01:12.269Z,67.61
2023-11-25T15:03:40.875Z,67.40
2023-11-25T15:06:08.420Z,67.02
2023-11-25T15:08:39.103Z,66.94
2023-11-25T15:11:06.785Z,67.46
2023-11-25T15:13:35.109Z,67.71
2023-11-25T15:16:03.114Z,67.21
2023-11-25T15:18:33.011Z,67.33
2023-11-25T15:21:03.374Z,67.65
2023-11-25T15:23:31.123Z,67.55
2023-11-25T15:25:58.785Z,68.38
2023-11-25T15:28:26.300Z,67.65
2023-11-25T15:30:53.938Z,67.87
2023-11-25T15:33:21.306Z,67.79
2023-11-25T15:35:49.053Z,67.38
2023-11-25T15:38:17.248Z,67.23
2023-11-25T15:40:46.101Z,67.36
2023-11-25T15:43:15.666Z,67.04
2023-11-25T15:45:44.665Z,66.51
2023-11-25T15:48:12.721Z,67.10
2023-11-25T15:50:42.221Z,67.16
2023-11-25T15:53:13.755Z,67.59
2023-11-25T15:55:41.272Z,68.49
2023-11-25T15:58:13.322Z,70.44
2023-11-25T16:00:41.717Z,72.79
2023-11-25T16:03:11.464Z,74.01
2023-11-25T16:05:40.224Z,75.24
2023-11-25T16:08:08.611Z,76.99
2023-11-25T16:10:36.636Z,77.35
2023-11-25T16:13:07.766Z,78.33
2023-11-25T16:15:35.647Z,79.29
2023-11-25T16:18:07.232Z,79.55
2023-11-25T16:20:36.155Z,80.69
2023-11-25T16:23:12.952Z,80.87
2023-11-25T16:25:40.491Z,80.78
2023-11-25T16:28:08.232Z,81.17
2023-11-25T16:30:36.034Z,81.89
2023-11-25T16:33:09.690Z,81.86
2023-11-25T16:35:38.141Z,81.70
2023-11-25T16:38:06.684Z,82.72
2023-11-25T16:40:34.091Z,82.05
2023-11-25T16:43:04.485Z,82.63
2023-11-25T16:45:33.541Z,82.10
2023-11-25T16:48:02.736Z,81.85
2023-11-25T16:50:30.506Z,81.68
2023-11-25T16:52:58.270Z,81.78
2023-11-25T16:55:27.114Z,82.25
2023-11-25T16:57:54.859Z,82.64
2023-11-25T17:00:25.201Z,82.65
2023-11-25T17:02:52.690Z,82.33
2023-11-25T17:05:21.483Z,82.75
2023-11-25T17:07:49.428Z,82.33
2023-11-25T17:10:17.568Z,81.95
2023-11-25T17:12:55.934Z,81.97
2023-11-25T17:15:23.801Z,82.24
2023-11-25T17:17:52.311Z,82.32
2023-11-25T17:20:19.941Z,82.38
2023-11-25T17:22:50.130Z,82.35
2023-11-25T17:25:19.975Z,82.36
2023-11-25T17:27:48.409Z,81.93
2023-11-25T17:30:15.834Z,82.28
2023-11-25T17:32:43.522Z,82.16
2023-11-25T17:35:10.944Z,82.02
2023-11-25T17:37:39.665Z,82.00
2023-11-25T17:40:10.346Z,81.92
2023-11-25T17:42:37.695Z,82.11
2023-11-25T17:45:14.015Z,81.90
2023-11-25T17:47:42.942Z,81.86
2023-11-25T17:50:11.174Z,81.56
2023-11-25T17:52:38.605Z,82.35
2023-11-25T17:55:11.488Z,82.44
2023-11-25T17:57:38.867Z,82.26
2023-11-25T18:00:11.890Z,81.84
2023-11-25T18:02:40.771Z,82.02
2023-11-25T18:05:11.160Z,81.85
2023-11-25T18:07:42.743Z,81.79
2023-11-25T18:10:12.186Z,82.11
2023-11-25T18:12:39.585Z,81.41
2023-11-25T18:15:08.672Z,81.03
2023-11-25T18:17:36.730Z,80.87
2023-11-25T18:20:06.916Z,80.77
2023-11-25T18:22:36.705Z,80.92
2023-11-25T18:25:06.711Z,80.79
2023-11-25T18:27:35.232Z,80.83
2023-11-25T18:30:02.592Z,80.71
2023-11-25T18:32:30.252Z,80.06
2023-11-25T18:35:01.680Z,80.20
2023-11-25T18:37:36.367Z,79.46
2023-11-25T18:40:05.739Z,80.04
2023-11-25T18:42:34.625Z,79.77
2023-11-25T18:45:08.201Z,80.03
2023-11-25T18:47:37.904Z,80.18
2023-11-25T18:50:07.712Z,80.44
2023-11-25T18:52:37.172Z,80.43
2023-11-25T18:55:06.907Z,80.50
2023-11-25T18:57:34.317Z,80.45
2023-11-25T19:00:03.825Z,80.48
2023-11-25T19:02:33.184Z,80.59
2023-11-25T19:05:03.612Z,80.61
2023-11-25T19:07:34.991Z,80.58
2023-11-25T19:10:03.527Z,80.81
2023-11-25T19:12:32.682Z,81.09
2023-11-25T19:15:02.423Z,81.04
2023-11-25T19:17:31.892Z,81.02
2023-11-25T19:19:59.631Z,80.99
2023-11-25T19:22:26.978Z,81.27
2023-11-25T19:24:54.337Z,81.00
2023-11-25T19:27:24.197Z,81.07
2023-11-25T19:29:52.288Z,81.24
2023-11-25T19:32:19.638Z,81.32
2023-11-25T19:34:47.925Z,81.34
2023-11-25T19:37:15.368Z,81.17
2023-11-25T19:39:43.837Z,81.19
2023-11-25T19:42:11.513Z,81.15
2023-11-25T19:44:45.271Z,80.39
2023-11-25T19:47:13.136Z,80.28
2023-11-25T19:49:42.671Z,80.24
2023-11-25T19:52:13.136Z,80.41
2023-11-25T19:54:43.422Z,80.55
2023-11-25T19:57:15.446Z,80.56
2023-11-25T19:59:43.159Z,81.83
2023-11-25T20:02:11.675Z,82.93
2023-11-25T20:04:40.932Z,83.81
2023-11-25T20:07:09.541Z,84.36
2023-11-25T20:09:38.043Z,84.81
2023-11-25T20:12:07.042Z,84.61
2023-11-25T20:14:34.360Z,83.61
2023-11-25T20:17:03.800Z,83.51
2023-11-25T20:19:34.831Z,82.89
2023-11-25T20:22:02.587Z,82.23
2023-11-25T20:24:29.981Z,81.87
2023-11-25T20:27:02.049Z,81.71
2023-11-25T20:29:29.438Z,81.70
2023-11-25T20:31:56.832Z,81.93
2023-11-25T20:34:28.401Z,82.39
2023-11-25T20:36:59.187Z,82.93
2023-11-25T20:39:27.560Z,83.33
2023-11-25T20:41:58.361Z,83.34
2023-11-25T20:44:26.020Z,83.67
2023-11-25T20:46:54.588Z,83.56
2023-11-25T20:49:21.956Z,83.76
2023-11-25T20:51:49.317Z,83.83
2023-11-25T20:54:19.529Z,83.43
2023-11-25T20:56:46.945Z,83.70
2023-11-25T20:59:15.147Z,84.43
2023-11-25T21:01:44.105Z,84.70
2023-11-25T21:04:12.718Z,84.86
2023-11-25T21:06:43.047Z,85.01
2023-11-25T21:09:15.424Z,85.05
2023-11-25T21:11:43.635Z,84.81
2023-11-25T21:14:13.632Z,84.58
2023-11-25T21:16:43.112Z,84.80
2023-11-25T21:19:13.861Z,84.67
2023-11-25T21:21:41.282Z,84.50
2023-11-25T21:24:08.633Z,84.43
2023-11-25T21:26:36.318Z,83.90
2023-11-25T21:29:03.876Z,83.62
2023-11-25T21:31:31.255Z,83.67
2023-11-25T21:33:58.883Z,83.37
2023-11-25T21:36:26.330Z,83.03
2023-11-25T21:38:53.670Z,82.80
2023-11-25T21:41:22.786Z,82.73
2023-11-25T21:43:50.127Z,82.69
2023-11-25T21:46:17.647Z,82.38
2023-11-25T21:48:45.279Z,81.77
2023-11-25T21:51:13.010Z,81.70
2023-11-25T21:53:40.684Z,81.92
2023-11-25T21:56:08.505Z,82.03
2023-11-25T21:58:39.951Z,82.06
2023-11-25T22:01:09.123Z,82.12
2023-11-25T22:03:40.361Z,82.13
2023-11-25T22:06:08.009Z,82.12
2023-11-25T22:08:36.334Z,81.99
2023-11-25T22:11:04.919Z,81.46
2023-11-25T22:13:35.099Z,81.04
2023-11-25T22:16:03.173Z,80.45
2023-11-25T22:18:36.538Z,80.12
2023-11-25T22:21:03.952Z,80.45
2023-11-25T22:23:32.804Z,80.32
2023-11-25T22:26:16.968Z,80.84
2023-11-25T22:28:44.729Z,81.13
2023-11-25T22:31:17.097Z,81.45
2023-11-25T22:33:45.066Z,81.97
2023-11-25T22:36:21.717Z,83.21
2023-11-25T22:38:50.053Z,83.47
2023-11-25T22:41:17.994Z,82.66
2023-11-25T22:43:48.018Z,81.87
2023-11-25T22:46:21.424Z,81.62
2023-11-25T22:48:49.823Z,81.39
2023-11-25T22:51:18.207Z,80.78
2023-11-25T22:53:47.208Z,80.62
2023-11-25T22:56:15.643Z,80.61
2023-11-25T22:58:45.882Z,80.71
2023-11-25T23:01:14.257Z,80.41
2023-11-25T23:03:42.304Z,80.82
2023-11-25T23:06:11.714Z,80.93
2023-11-25T23:08:45.660Z,80.88
2023-11-25T23:11:13.398Z,80.88
2023-11-25T23:13:42.271Z,81.04
2023-11-25T23:16:11.552Z,80.62
2023-11-25T23:18:40.882Z,81.00
2023-11-25T23:21:09.086Z,81.21
2023-11-25T23:23:43.479Z,81.14
2023-11-25T23:26:16.208Z,81.28
2023-11-25T23:28:44.444Z,82.08
2023-11-25T23:31:13.098Z,82.48
2023-11-25T23:33:40.956Z,82.42
2023-11-25T23:36:09.075Z,82.40
2023-11-25T23:38:37.154Z,82.53
2023-11-25T23:41:05.462Z,82.54
2023-11-25T23:43:33.784Z,82.67
2023-11-25T23:46:01.256Z,82.97
2023-11-25T23:48:29.941Z,83.67
2023-11-25T23:50:57.799Z,84.07
2023-11-25T23:53:25.224Z,84.23
2023-11-25T23:55:52.933Z,84.89
2023-11-25T23:58:21.148Z,85.01
